Terminal Aerodrome Forecast
Issued by NWS Cleveland, OH

Home | Current Version | Previous Version | Graphics & Text | Print | Product List | Glossary On
Versions: 1 2 3 4 5 6 7 8 9 10 11 12 13 14 15 16 17 18 19 20 21 22 23 24 25 26 27 28 29 30 31 32
000
FTUS41 KCLE 272337
TAFCLE
TAF
KCLE 272337Z 2800/2906 22005KT P6SM BKN250
     FM281400 15009KT P6SM VCSH OVC035
      TEMPO 2817/2820 3SM -RA OVC025
     FM282000 08009KT 5SM -SHRA BR OVC035
     FM290300 08009KT P6SM VCSH SCT035 OVC060=

USA.gov is the U.S. government's official web portal to all federal, state and local government web resources and services.